createdAt,value
2018-05-21T00:00:10.251Z,0
2018-05-21T00:00:50.800Z,0
2018-05-21T00:01:31.415Z,0
2018-05-21T00:02:11.989Z,0
2018-05-21T00:02:52.561Z,0
2018-05-21T00:03:33.094Z,0
2018-05-21T00:04:13.647Z,0
2018-05-21T00:04:54.213Z,0
2018-05-21T00:05:34.773Z,0
2018-05-21T00:06:15.346Z,0
2018-05-21T00:06:55.933Z,0
2018-05-21T00:07:36.491Z,0
2018-05-21T00:08:17.046Z,0
2018-05-21T00:08:57.607Z,0
2018-05-21T00:09:38.164Z,0
2018-05-21T00:10:18.733Z,0
2018-05-21T00:10:59.286Z,0
2018-05-21T00:11:39.869Z,0
2018-05-21T00:12:20.436Z,0
2018-05-21T00:13:01.003Z,0
2018-05-21T00:13:41.554Z,0
2018-05-21T00:14:22.103Z,0
2018-05-21T00:15:02.676Z,0
2018-05-21T00:15:43.232Z,0
2018-05-21T00:16:23.780Z,0
2018-05-21T00:17:04.337Z,0
2018-05-21T00:17:44.892Z,0
2018-05-21T00:18:25.477Z,0
2018-05-21T00:19:06.039Z,0
2018-05-21T00:19:46.593Z,0
2018-05-21T00:20:27.158Z,0
2018-05-21T00:21:07.711Z,0
2018-05-21T00:21:48.266Z,0
2018-05-21T00:22:28.845Z,0
2018-05-21T00:23:09.390Z,0
2018-05-21T00:23:49.937Z,0
2018-05-21T00:24:30.494Z,0
2018-05-21T00:25:11.068Z,0
2018-05-21T00:25:51.640Z,0
2018-05-21T00:26:32.229Z,0
2018-05-21T00:27:12.819Z,0
2018-05-21T00:27:53.372Z,0
2018-05-21T00:28:33.929Z,0
2018-05-21T00:29:14.507Z,0
2018-05-21T00:29:55.071Z,0
2018-05-21T00:30:35.625Z,0
2018-05-21T00:31:16.180Z,0
2018-05-21T00:31:56.735Z,0
2018-05-21T00:32:37.304Z,0
2018-05-21T00:33:17.867Z,0
2018-05-21T00:33:58.447Z,0
2018-05-21T00:34:39.031Z,0
2018-05-21T00:35:19.580Z,0
2018-05-21T00:36:00.165Z,0
2018-05-21T00:36:40.748Z,0
2018-05-21T00:37:21.299Z,0
2018-05-21T00:38:01.870Z,0
2018-05-21T00:38:42.443Z,0
2018-05-21T00:39:22.989Z,0
2018-05-21T00:40:03.579Z,0
2018-05-21T00:40:44.144Z,0
2018-05-21T00:41:24.724Z,0
2018-05-21T00:42:05.288Z,0
2018-05-21T00:42:45.846Z,0
2018-05-21T00:43:26.407Z,0
2018-05-21T00:44:06.947Z,0
2018-05-21T00:44:47.506Z,0
2018-05-21T00:45:28.071Z,0
2018-05-21T00:46:08.634Z,0
2018-05-21T00:46:49.177Z,0
2018-05-21T00:47:29.749Z,0
2018-05-21T00:48:10.317Z,0
2018-05-21T00:48:50.892Z,0
2018-05-21T00:49:31.463Z,0
2018-05-21T00:50:12.052Z,0
2018-05-21T00:50:52.586Z,0
2018-05-21T00:51:33.155Z,0
2018-05-21T00:52:13.744Z,0
2018-05-21T00:52:54.316Z,0
2018-05-21T00:53:34.881Z,0
2018-05-21T00:54:15.433Z,0
2018-05-21T00:54:55.988Z,0
2018-05-21T00:55:36.545Z,0
2018-05-21T00:56:17.120Z,0
2018-05-21T00:56:57.700Z,0
2018-05-21T00:57:38.252Z,0
2018-05-21T00:58:18.826Z,0
2018-05-21T00:58:59.369Z,0
2018-05-21T00:59:39.924Z,0
2018-05-21T01:00:20.475Z,0
2018-05-21T01:01:01.056Z,0
2018-05-21T01:01:41.596Z,0
2018-05-21T01:02:22.180Z,0
2018-05-21T01:03:02.723Z,0
2018-05-21T01:03:43.280Z,0
2018-05-21T01:04:23.853Z,0
2018-05-21T01:05:04.422Z,0
2018-05-21T01:05:44.970Z,0
2018-05-21T01:06:25.522Z,0
2018-05-21T01:07:06.072Z,0
2018-05-21T01:07:46.653Z,0
2018-05-21T01:08:27.190Z,0
2018-05-21T01:09:07.776Z,0
2018-05-21T01:09:48.348Z,0
2018-05-21T01:10:28.925Z,0
2018-05-21T01:11:09.520Z,0
2018-05-21T01:11:50.043Z,0
2018-05-21T01:12:30.603Z,0
2018-05-21T01:13:11.157Z,0
2018-05-21T01:13:51.714Z,0
2018-05-21T01:14:32.285Z,0
2018-05-21T01:15:12.858Z,0
2018-05-21T01:15:53.424Z,0
2018-05-21T01:16:34.009Z,0
2018-05-21T01:17:14.599Z,0
2018-05-21T01:17:55.186Z,0
2018-05-21T01:18:35.748Z,0
2018-05-21T01:19:16.295Z,0
2018-05-21T01:19:56.843Z,0
2018-05-21T01:20:37.398Z,0
2018-05-21T01:21:17.976Z,0
2018-05-21T01:21:58.543Z,0
2018-05-21T01:22:39.095Z,0
2018-05-21T01:23:19.650Z,0
2018-05-21T01:24:00.214Z,0
2018-05-21T01:24:40.774Z,0
2018-05-21T01:25:21.346Z,0
2018-05-21T01:26:01.900Z,0
2018-05-21T01:26:42.454Z,0
2018-05-21T01:27:23.012Z,0
2018-05-21T01:28:03.582Z,0
2018-05-21T01:28:44.150Z,0
2018-05-21T01:29:24.713Z,0
2018-05-21T01:30:05.295Z,0
2018-05-21T01:30:45.863Z,0
2018-05-21T01:31:26.432Z,0
2018-05-21T01:32:07.009Z,0
2018-05-21T01:32:47.561Z,0
2018-05-21T01:33:28.135Z,0
2018-05-21T01:34:08.767Z,0
2018-05-21T01:34:49.270Z,0
2018-05-21T01:35:29.831Z,0
2018-05-21T01:36:10.372Z,0
2018-05-21T01:36:50.924Z,0
2018-05-21T01:37:31.490Z,0
2018-05-21T01:38:12.048Z,0
2018-05-21T01:38:52.616Z,0
2018-05-21T01:39:33.186Z,0
2018-05-21T01:40:13.751Z,0
2018-05-21T01:40:54.352Z,0
2018-05-21T01:41:34.948Z,0
2018-05-21T01:42:15.516Z,0
2018-05-21T01:42:56.072Z,0
2018-05-21T01:43:36.641Z,0
2018-05-21T01:44:17.194Z,0
2018-05-21T01:44:57.765Z,0
2018-05-21T01:45:38.302Z,0
2018-05-21T01:46:18.858Z,0
2018-05-21T01:46:59.448Z,0
2018-05-21T01:47:40.007Z,0
2018-05-21T01:48:20.591Z,0
2018-05-21T01:49:01.189Z,0
2018-05-21T01:49:41.777Z,0
2018-05-21T01:50:22.341Z,0
2018-05-21T01:51:02.888Z,0
2018-05-21T01:51:43.451Z,0
2018-05-21T01:52:24.032Z,0
2018-05-21T01:53:04.586Z,0
2018-05-21T01:53:45.149Z,0
2018-05-21T01:54:25.722Z,0
2018-05-21T01:55:06.296Z,0
2018-05-21T01:55:46.842Z,0
2018-05-21T01:56:27.395Z,0
2018-05-21T01:57:07.966Z,0
2018-05-21T01:57:48.531Z,0
2018-05-21T01:58:29.094Z,0
2018-05-21T01:59:09.658Z,0
2018-05-21T01:59:50.229Z,0
2018-05-21T02:00:30.791Z,0
2018-05-21T02:01:11.426Z,0
2018-05-21T02:01:51.999Z,0
2018-05-21T02:02:32.573Z,0
2018-05-21T02:03:13.154Z,0
2018-05-21T02:03:53.709Z,0
2018-05-21T02:04:34.266Z,0
2018-05-21T02:05:14.827Z,0
2018-05-21T02:05:55.378Z,0
2018-05-21T02:06:35.949Z,0
2018-05-21T02:07:16.517Z,0
2018-05-21T02:07:57.065Z,0
2018-05-21T02:08:37.737Z,0
2018-05-21T02:09:18.205Z,0
2018-05-21T02:09:58.768Z,0
2018-05-21T02:10:39.334Z,0
2018-05-21T02:11:19.911Z,0
2018-05-21T02:12:00.464Z,0
2018-05-21T02:12:41.067Z,0
2018-05-21T02:13:21.621Z,0
2018-05-21T02:14:02.185Z,0
2018-05-21T02:14:42.760Z,0
2018-05-21T02:15:23.326Z,0
2018-05-21T02:16:03.912Z,0
2018-05-21T02:16:44.447Z,0
2018-05-21T02:17:25.020Z,0
2018-05-21T02:18:05.602Z,0
2018-05-21T02:18:46.146Z,0
2018-05-21T02:19:26.694Z,0
2018-05-21T02:20:07.263Z,0
2018-05-21T02:20:47.826Z,0
2018-05-21T02:21:28.379Z,0
2018-05-21T02:22:08.947Z,0
2018-05-21T02:22:49.500Z,0
2018-05-21T02:23:30.058Z,0
2018-05-21T02:24:10.649Z,0
2018-05-21T02:24:51.226Z,0
2018-05-21T02:25:31.786Z,0
2018-05-21T02:26:12.329Z,0
2018-05-21T02:26:52.903Z,0
2018-05-21T02:27:33.464Z,4
2018-05-21T02:28:14.023Z,4
2018-05-21T02:28:54.614Z,4
2018-05-21T02:29:35.157Z,4
2018-05-21T02:30:15.737Z,4
2018-05-21T02:30:56.349Z,0
2018-05-21T02:31:36.894Z,4
2018-05-21T02:32:17.464Z,4
2018-05-21T02:32:58.026Z,4
2018-05-21T02:33:38.599Z,4
2018-05-21T02:34:19.148Z,8
2018-05-21T02:34:59.709Z,4
2018-05-21T02:35:40.272Z,4
2018-05-21T02:36:20.830Z,8
2018-05-21T02:37:01.400Z,8
2018-05-21T02:37:41.967Z,8
2018-05-21T02:38:22.532Z,8
2018-05-21T02:39:03.079Z,8
2018-05-21T02:39:43.644Z,8
2018-05-21T02:40:24.200Z,12
2018-05-21T02:41:04.755Z,12
2018-05-21T02:41:45.301Z,16
2018-05-21T02:42:25.857Z,12
2018-05-21T02:43:06.416Z,12
2018-05-21T02:43:46.981Z,16
2018-05-21T02:44:27.547Z,16
2018-05-21T02:45:08.119Z,16
2018-05-21T02:45:48.690Z,20
2018-05-21T02:46:29.257Z,20
2018-05-21T02:47:09.845Z,24
2018-05-21T02:47:50.436Z,24
2018-05-21T02:48:31.017Z,24
2018-05-21T02:49:11.578Z,28
2018-05-21T02:49:52.143Z,28
2018-05-21T02:50:32.710Z,32
2018-05-21T02:51:13.290Z,32
2018-05-21T02:51:53.874Z,36
2018-05-21T02:52:34.422Z,40
2018-05-21T02:53:14.972Z,44
2018-05-21T02:53:55.573Z,48
2018-05-21T02:54:36.155Z,48
2018-05-21T02:55:16.724Z,52
2018-05-21T02:55:57.282Z,56
2018-05-21T02:56:37.854Z,56
2018-05-21T02:57:18.416Z,64
2018-05-21T02:57:58.988Z,64
2018-05-21T02:58:39.555Z,68
2018-05-21T02:59:20.116Z,72
2018-05-21T03:00:00.679Z,76
2018-05-21T03:00:41.240Z,84
2018-05-21T03:01:21.880Z,88
2018-05-21T03:02:02.443Z,92
2018-05-21T03:02:43.011Z,96
2018-05-21T03:03:23.586Z,100
2018-05-21T03:04:04.156Z,112
2018-05-21T03:04:44.709Z,116
2018-05-21T03:05:25.274Z,120
2018-05-21T03:06:05.841Z,124
2018-05-21T03:06:46.414Z,132
2018-05-21T03:07:27.019Z,140
2018-05-21T03:08:07.594Z,148
2018-05-21T03:08:48.160Z,152
2018-05-21T03:09:28.729Z,160
2018-05-21T03:10:09.275Z,168
2018-05-21T03:10:49.850Z,176
2018-05-21T03:11:30.502Z,180
2018-05-21T03:12:11.060Z,188
2018-05-21T03:12:51.609Z,200
2018-05-21T03:13:32.179Z,208
2018-05-21T03:14:12.752Z,216
2018-05-21T03:14:53.309Z,228
2018-05-21T03:15:33.858Z,236
2018-05-21T03:16:14.405Z,244
2018-05-21T03:16:54.972Z,256
2018-05-21T03:17:35.519Z,264
2018-05-21T03:18:16.079Z,276
2018-05-21T03:18:56.620Z,284
2018-05-21T03:19:37.191Z,296
2018-05-21T03:20:17.757Z,308
2018-05-21T03:20:58.339Z,320
2018-05-21T03:21:38.960Z,332
2018-05-21T03:22:19.537Z,344
2018-05-21T03:23:00.087Z,356
2018-05-21T03:23:40.678Z,368
2018-05-21T03:24:21.203Z,376
2018-05-21T03:25:01.776Z,384
2018-05-21T03:25:42.330Z,400
2018-05-21T03:26:22.900Z,408
2018-05-21T03:27:03.491Z,420
2018-05-21T03:27:44.064Z,432
2018-05-21T03:28:24.604Z,444
2018-05-21T03:29:05.162Z,460
2018-05-21T03:29:45.719Z,472
2018-05-21T03:30:26.262Z,484
2018-05-21T03:31:06.839Z,504
2018-05-21T03:31:47.372Z,516
2018-05-21T03:32:27.935Z,532
2018-05-21T03:33:08.476Z,548
2018-05-21T03:33:49.051Z,568
2018-05-21T03:34:29.610Z,584
2018-05-21T03:35:10.197Z,596
2018-05-21T03:35:50.754Z,608
2018-05-21T03:36:31.335Z,624
2018-05-21T03:37:11.897Z,636
2018-05-21T03:37:52.461Z,648
2018-05-21T03:38:33.019Z,660
2018-05-21T03:39:13.611Z,668
2018-05-21T03:39:54.176Z,680
2018-05-21T03:40:34.736Z,692
2018-05-21T03:41:15.315Z,708
2018-05-21T03:41:55.934Z,724
2018-05-21T03:42:36.493Z,740
2018-05-21T03:43:17.058Z,756
2018-05-21T03:43:57.594Z,772
2018-05-21T03:44:38.153Z,788
2018-05-21T03:45:18.715Z,804
2018-05-21T03:45:59.275Z,820
2018-05-21T03:46:39.843Z,836
2018-05-21T03:47:20.411Z,848
2018-05-21T03:48:00.988Z,856
2018-05-21T03:48:41.552Z,872
2018-05-21T03:49:22.100Z,888
2018-05-21T03:50:02.654Z,900
2018-05-21T03:50:43.206Z,912
2018-05-21T03:51:23.748Z,928
2018-05-21T03:52:04.300Z,940
2018-05-21T03:52:44.854Z,956
2018-05-21T03:53:25.415Z,968
2018-05-21T03:54:05.967Z,984
2018-05-21T03:54:46.505Z,996
2018-05-21T03:55:27.069Z,1008
2018-05-21T03:56:07.626Z,1024
2018-05-21T03:56:48.183Z,1040
2018-05-21T03:57:28.763Z,1056
2018-05-21T03:58:09.327Z,1076
2018-05-21T03:58:49.895Z,1096
2018-05-21T03:59:30.485Z,1116
2018-05-21T04:00:11.027Z,1140
2018-05-21T04:00:51.615Z,1156
2018-05-21T04:01:32.215Z,1172
2018-05-21T04:02:12.782Z,1192
2018-05-21T04:02:53.355Z,1208
2018-05-21T04:03:33.918Z,1228
2018-05-21T04:04:14.488Z,1244
2018-05-21T04:04:55.047Z,1260
2018-05-21T04:05:35.657Z,1272
2018-05-21T04:06:16.174Z,1292
2018-05-21T04:06:56.723Z,1304
2018-05-21T04:07:37.298Z,1320
2018-05-21T04:08:17.859Z,1336
2018-05-21T04:08:58.438Z,1352
2018-05-21T04:09:38.996Z,1368
2018-05-21T04:10:19.556Z,1380
2018-05-21T04:11:00.109Z,1396
2018-05-21T04:11:40.676Z,1412
2018-05-21T04:12:21.241Z,1428
2018-05-21T04:13:01.806Z,1440
2018-05-21T04:13:42.371Z,1460
2018-05-21T04:14:22.928Z,1472
2018-05-21T04:15:03.499Z,1488
2018-05-21T04:15:44.094Z,1504
2018-05-21T04:16:24.659Z,1516
2018-05-21T04:17:05.180Z,1532
2018-05-21T04:17:45.748Z,1544
2018-05-21T04:18:26.293Z,1560
2018-05-21T04:19:06.838Z,1576
2018-05-21T04:19:47.381Z,1596
2018-05-21T04:20:27.957Z,1612
2018-05-21T04:21:08.520Z,1624
2018-05-21T04:21:49.099Z,1644
2018-05-21T04:22:29.669Z,1656
2018-05-21T04:23:10.247Z,1672
2018-05-21T04:23:50.828Z,1688
2018-05-21T04:24:31.392Z,1708
2018-05-21T04:25:11.962Z,1728
2018-05-21T04:25:52.542Z,1740
2018-05-21T04:26:33.114Z,1756
2018-05-21T04:27:13.655Z,1776
2018-05-21T04:27:54.226Z,1796
2018-05-21T04:28:34.777Z,1816
2018-05-21T04:29:15.344Z,1832
2018-05-21T04:29:55.913Z,1848
2018-05-21T04:30:36.485Z,1860
2018-05-21T04:31:17.034Z,1880
2018-05-21T04:31:57.595Z,1892
2018-05-21T04:32:38.157Z,1908
2018-05-21T04:33:18.725Z,1924
2018-05-21T04:33:59.284Z,1940
2018-05-21T04:34:39.843Z,1960
2018-05-21T04:35:20.430Z,1976
2018-05-21T04:36:01.015Z,1992
2018-05-21T04:36:41.569Z,2008
2018-05-21T04:37:22.116Z,2024
2018-05-21T04:38:02.723Z,2044
2018-05-21T04:38:43.278Z,2064
2018-05-21T04:39:23.869Z,2084
2018-05-21T04:40:04.417Z,2100
2018-05-21T04:40:44.986Z,2120
2018-05-21T04:41:25.522Z,2136
2018-05-21T04:42:06.099Z,2152
2018-05-21T04:42:46.677Z,2164
2018-05-21T04:43:27.247Z,2180
2018-05-21T04:44:07.797Z,2196
2018-05-21T04:44:48.350Z,2216
2018-05-21T04:45:28.927Z,2232
2018-05-21T04:46:09.475Z,2252
2018-05-21T04:46:50.052Z,2268
2018-05-21T04:47:30.619Z,2284
2018-05-21T04:48:11.182Z,2300
2018-05-21T04:48:51.745Z,2316
2018-05-21T04:49:32.308Z,2332
2018-05-21T04:50:12.880Z,2348
2018-05-21T04:50:53.447Z,2368
2018-05-21T04:51:33.984Z,2388
2018-05-21T04:52:14.533Z,2408
2018-05-21T04:52:55.109Z,2432
2018-05-21T04:53:35.691Z,2448
2018-05-21T04:54:16.247Z,2468
2018-05-21T04:54:56.807Z,2480
2018-05-21T04:55:37.362Z,2504
2018-05-21T04:56:17.928Z,2528
2018-05-21T04:56:58.514Z,2552
2018-05-21T04:57:39.065Z,2576
2018-05-21T04:58:19.604Z,2596
2018-05-21T04:59:00.145Z,2620
2018-05-21T04:59:40.756Z,2636
2018-05-21T05:00:21.309Z,2652
2018-05-21T05:01:01.896Z,2672
2018-05-21T05:01:42.467Z,2696
2018-05-21T05:02:23.071Z,2720
2018-05-21T05:03:03.642Z,2744
2018-05-21T05:03:44.217Z,2768
2018-05-21T05:04:24.761Z,2788
2018-05-21T05:05:05.320Z,2812
2018-05-21T05:05:45.895Z,2836
2018-05-21T05:06:26.475Z,2860
2018-05-21T05:07:07.045Z,2888
2018-05-21T05:07:47.627Z,2916
2018-05-21T05:08:28.193Z,2944
2018-05-21T05:09:08.858Z,2964
2018-05-21T05:09:49.342Z,2996
2018-05-21T05:10:30.105Z,3020
2018-05-21T05:11:10.664Z,3052
2018-05-21T05:11:51.251Z,3072
2018-05-21T05:12:31.810Z,3100
2018-05-21T05:13:12.361Z,3124
2018-05-21T05:13:52.926Z,3152
2018-05-21T05:14:33.482Z,3176
2018-05-21T05:15:14.046Z,3208
2018-05-21T05:15:54.622Z,3240
2018-05-21T05:16:35.187Z,3284
2018-05-21T05:17:15.749Z,3324
2018-05-21T05:17:56.303Z,3376
2018-05-21T05:18:36.900Z,3432
2018-05-21T05:19:17.451Z,3488
2018-05-21T05:19:58.020Z,3548
2018-05-21T05:20:38.595Z,3612
2018-05-21T05:21:19.164Z,3676
2018-05-21T05:21:59.735Z,3744
2018-05-21T05:22:40.306Z,3812
2018-05-21T05:23:20.876Z,3880
2018-05-21T05:24:01.432Z,3956
2018-05-21T05:24:41.988Z,4036
2018-05-21T05:25:22.552Z,4112
2018-05-21T05:26:03.117Z,4196
2018-05-21T05:26:43.722Z,4288
2018-05-21T05:27:24.244Z,4464
2018-05-21T05:28:04.808Z,20416
2018-05-21T05:28:45.394Z,47520
2018-05-21T05:29:25.936Z,74016
2018-05-21T05:30:06.571Z,86112
2018-05-21T05:30:47.147Z,84832
2018-05-21T05:31:27.699Z,82560
2018-05-21T05:32:08.261Z,81344
2018-05-21T05:32:48.836Z,81152
2018-05-21T05:33:29.390Z,82176
2018-05-21T05:34:09.952Z,82880
2018-05-21T05:34:50.525Z,84000
2018-05-21T05:35:31.097Z,84000
2018-05-21T05:36:11.652Z,84000
2018-05-21T05:36:52.205Z,82592
2018-05-21T05:37:32.785Z,81888
2018-05-21T05:38:13.338Z,80896
2018-05-21T05:38:53.906Z,82464
2018-05-21T05:39:34.475Z,83552
2018-05-21T05:40:15.052Z,83648
2018-05-21T05:40:55.624Z,79296
2018-05-21T05:41:36.181Z,77504
2018-05-21T05:42:16.736Z,76224
2018-05-21T05:42:57.306Z,78464
2018-05-21T05:43:37.878Z,80704
2018-05-21T05:44:18.456Z,83040
2018-05-21T05:44:59.012Z,84480
2018-05-21T05:45:39.595Z,84768
2018-05-21T05:46:20.173Z,83648
2018-05-21T05:47:00.751Z,83968
2018-05-21T05:47:41.427Z,86560
2018-05-21T05:48:21.989Z,90208
2018-05-21T05:49:02.592Z,92480
2018-05-21T05:49:43.177Z,92736
2018-05-21T05:50:23.739Z,94016
2018-05-21T05:51:04.309Z,92736
2018-05-21T05:51:44.877Z,90464
2018-05-21T05:52:25.461Z,88992
2018-05-21T05:53:06.043Z,89984
2018-05-21T05:53:46.650Z,91200
2018-05-21T05:54:27.224Z,91488
2018-05-21T05:55:07.812Z,91232
2018-05-21T05:55:48.392Z,92032
2018-05-21T05:56:28.995Z,94880
2018-05-21T05:57:09.589Z,96192
2018-05-21T05:57:50.161Z,95840
2018-05-21T05:58:30.725Z,94464
2018-05-21T05:59:11.290Z,94400
2018-05-21T05:59:51.869Z,95456
2018-05-21T06:00:32.448Z,93696
2018-05-21T06:01:13.024Z,91744
2018-05-21T06:01:53.608Z,88224
2018-05-21T06:02:34.211Z,84768
2018-05-21T06:03:14.773Z,82912
2018-05-21T06:03:55.341Z,84192
2018-05-21T06:04:35.900Z,88224
2018-05-21T06:05:16.471Z,92896
2018-05-21T06:05:57.044Z,94016
2018-05-21T06:06:37.609Z,92832
2018-05-21T06:07:18.177Z,92448
2018-05-21T06:07:58.751Z,92768
2018-05-21T06:08:39.324Z,93728
2018-05-21T06:09:19.917Z,93984
2018-05-21T06:10:00.472Z,93856
2018-05-21T06:10:41.063Z,93248
2018-05-21T06:11:21.669Z,94080
2018-05-21T06:12:02.245Z,94048
2018-05-21T06:12:42.802Z,92672
2018-05-21T06:13:23.399Z,90688
2018-05-21T06:14:03.979Z,90560
2018-05-21T06:14:44.542Z,91392
2018-05-21T06:15:25.117Z,93376
2018-05-21T06:16:05.771Z,94464
2018-05-21T06:16:46.351Z,95712
2018-05-21T06:17:26.946Z,95040
2018-05-21T06:18:07.545Z,93952
2018-05-21T06:18:48.067Z,92192
2018-05-21T06:19:28.666Z,91872
2018-05-21T06:20:09.237Z,92224
2018-05-21T06:20:49.805Z,91840
2018-05-21T06:21:30.394Z,91104
2018-05-21T06:22:10.972Z,90624
2018-05-21T06:22:51.548Z,90400
2018-05-21T06:23:32.137Z,91392
2018-05-21T06:24:12.715Z,92032
2018-05-21T06:24:53.302Z,92288
2018-05-21T06:25:33.870Z,93216
2018-05-21T06:26:14.440Z,92128
2018-05-21T06:26:55.018Z,92160
2018-05-21T06:27:35.592Z,91328
2018-05-21T06:28:16.168Z,91008
2018-05-21T06:28:56.780Z,90176
2018-05-21T06:29:37.343Z,88736
2018-05-21T06:30:17.906Z,87840
2018-05-21T06:30:58.477Z,87872
2018-05-21T06:31:39.064Z,87648
2018-05-21T06:32:19.680Z,90176
2018-05-21T06:33:00.284Z,92448
2018-05-21T06:33:40.872Z,93856
2018-05-21T06:34:21.580Z,93088
2018-05-21T06:35:02.025Z,90880
2018-05-21T06:35:42.683Z,88416
2018-05-21T06:36:23.262Z,89120
2018-05-21T06:37:03.820Z,92576
2018-05-21T06:37:44.407Z,94432
2018-05-21T06:38:24.969Z,94080
2018-05-21T06:39:05.534Z,92448
2018-05-21T06:39:46.138Z,91136
2018-05-21T06:40:26.717Z,91040
2018-05-21T06:41:07.394Z,90432
2018-05-21T06:41:47.882Z,91168
2018-05-21T06:42:28.458Z,94112
2018-05-21T06:43:09.062Z,96192
2018-05-21T06:43:49.635Z,94848
2018-05-21T06:44:30.231Z,91456
2018-05-21T06:45:11.042Z,90016
2018-05-21T06:45:51.633Z,92320
2018-05-21T06:46:32.251Z,93440
2018-05-21T06:47:12.789Z,90272
2018-05-21T06:47:53.370Z,86560
2018-05-21T06:48:33.952Z,83328
2018-05-21T06:49:14.518Z,81984
2018-05-21T06:49:55.132Z,83872
2018-05-21T06:50:35.724Z,87488
2018-05-21T06:51:16.309Z,90528
2018-05-21T06:51:56.884Z,91776
2018-05-21T06:52:37.450Z,90528
2018-05-21T06:53:18.044Z,89152
2018-05-21T06:53:58.627Z,89984
2018-05-21T06:54:39.241Z,90624
2018-05-21T06:55:19.812Z,89792
2018-05-21T06:56:00.386Z,86336
2018-05-21T06:56:41.057Z,81440
2018-05-21T06:57:21.601Z,78048
2018-05-21T06:58:02.225Z,76736
2018-05-21T06:58:42.797Z,74912
2018-05-21T06:59:23.371Z,75616
2018-05-21T07:00:03.969Z,80992
2018-05-21T07:00:44.533Z,86944
2018-05-21T07:01:25.158Z,88096
2018-05-21T07:02:05.852Z,85088
2018-05-21T07:02:46.408Z,84672
2018-05-21T07:03:26.998Z,86528
2018-05-21T07:04:07.668Z,88992
2018-05-21T07:04:48.330Z,89760
2018-05-21T07:05:29.074Z,89280
2018-05-21T07:06:09.643Z,90112
2018-05-21T07:06:50.240Z,89152
2018-05-21T07:07:30.811Z,88992
2018-05-21T07:08:11.505Z,89280
2018-05-21T07:08:52.080Z,90304
2018-05-21T07:09:34.139Z,91424
2018-05-21T07:10:15.749Z,92256
2018-05-21T07:10:56.829Z,92096
2018-05-21T07:11:37.403Z,91168
2018-05-21T07:12:17.986Z,92512
2018-05-21T07:12:58.551Z,92192
2018-05-21T07:13:39.265Z,91776
2018-05-21T07:14:19.987Z,90912
2018-05-21T07:15:00.557Z,90016
2018-05-21T07:15:41.137Z,90176
2018-05-21T07:16:21.924Z,90976
2018-05-21T07:17:02.493Z,88992
2018-05-21T07:17:43.095Z,87392
2018-05-21T07:18:23.678Z,86112
2018-05-21T07:19:04.250Z,85952
2018-05-21T07:19:44.826Z,86208
2018-05-21T07:20:25.405Z,88992
2018-05-21T07:21:05.979Z,91680
2018-05-21T07:21:46.571Z,89728
2018-05-21T07:22:27.133Z,87648
2018-05-21T07:23:07.722Z,87712
2018-05-21T07:23:48.290Z,90208
2018-05-21T07:24:29.291Z,89824
2018-05-21T07:25:09.787Z,88544
2018-05-21T07:25:50.357Z,87744
2018-05-21T07:26:31.037Z,88704
2018-05-21T07:27:11.622Z,91392
2018-05-21T07:27:52.201Z,91904
2018-05-21T07:28:32.770Z,93376
2018-05-21T07:29:13.350Z,92800
2018-05-21T07:29:53.970Z,90848
2018-05-21T07:30:34.540Z,89952
2018-05-21T07:31:15.111Z,90720
2018-05-21T07:31:55.706Z,91680
2018-05-21T07:32:36.287Z,92032
2018-05-21T07:33:16.880Z,92160
2018-05-21T07:33:57.447Z,93024
2018-05-21T07:34:38.027Z,92736
2018-05-21T07:35:18.592Z,90464
2018-05-21T07:35:59.156Z,87968
2018-05-21T07:36:39.744Z,86336
2018-05-21T07:37:20.316Z,88576
2018-05-21T07:38:00.897Z,94080
2018-05-21T07:38:41.484Z,97888
2018-05-21T07:39:22.064Z,98176
2018-05-21T07:40:02.658Z,96896
2018-05-21T07:40:43.219Z,95712
2018-05-21T07:41:23.855Z,94272
2018-05-21T07:42:05.112Z,88384
2018-05-21T07:42:45.882Z,85248
2018-05-21T07:43:26.525Z,85120
2018-05-21T07:44:07.149Z,89312
2018-05-21T07:44:48.103Z,91104
2018-05-21T07:45:28.673Z,90592
2018-05-21T07:46:09.222Z,89312
2018-05-21T07:46:49.820Z,89536
2018-05-21T07:47:30.424Z,90272
2018-05-21T07:48:11.041Z,88544
2018-05-21T07:48:51.613Z,84608
2018-05-21T07:49:32.188Z,83776
2018-05-21T07:50:12.797Z,86496
2018-05-21T07:50:53.367Z,87776
2018-05-21T07:51:34.071Z,87648
2018-05-21T07:52:14.818Z,87136
2018-05-21T07:52:55.360Z,86176
2018-05-21T07:53:35.960Z,85600
2018-05-21T07:54:16.535Z,82752
2018-05-21T07:54:57.242Z,82560
2018-05-21T07:55:38.152Z,84352
2018-05-21T07:56:18.939Z,85728
2018-05-21T07:56:59.591Z,82912
2018-05-21T07:57:40.660Z,69408
2018-05-21T07:58:21.440Z,45376
2018-05-21T07:59:02.226Z,23904
2018-05-21T07:59:43.114Z,17824
2018-05-21T08:00:23.672Z,16992
2018-05-21T08:01:04.250Z,16480
2018-05-21T08:01:44.828Z,16064
2018-05-21T08:02:25.422Z,15840
2018-05-21T08:03:06.036Z,15648
2018-05-21T08:03:46.616Z,15392
2018-05-21T08:04:27.233Z,15168
2018-05-21T08:05:07.860Z,14780
2018-05-21T08:05:48.453Z,14540
2018-05-21T08:06:29.029Z,14312
2018-05-21T08:07:09.600Z,14088
2018-05-21T08:07:50.170Z,13824
2018-05-21T08:08:30.760Z,13584
2018-05-21T08:09:11.328Z,13320
2018-05-21T08:09:51.973Z,13068
2018-05-21T08:10:32.538Z,12796
2018-05-21T08:11:13.116Z,12532
2018-05-21T08:11:53.732Z,12216
2018-05-21T08:12:34.289Z,11964
2018-05-21T08:13:14.855Z,11660
2018-05-21T08:13:55.431Z,11388
2018-05-21T08:14:36.117Z,11132
2018-05-21T08:15:16.622Z,10896
2018-05-21T08:15:57.256Z,10680
2018-05-21T08:16:37.826Z,10452
2018-05-21T08:17:18.394Z,10248
2018-05-21T08:17:58.955Z,10040
2018-05-21T08:18:39.531Z,9840
2018-05-21T08:19:20.161Z,9676
2018-05-21T08:20:01.802Z,9504
2018-05-21T08:20:42.374Z,9336
2018-05-21T08:21:22.941Z,9192
2018-05-21T08:22:03.523Z,9052
2018-05-21T08:22:44.152Z,8920
2018-05-21T08:23:24.740Z,8792
2018-05-21T08:24:05.305Z,8668
2018-05-21T08:24:45.866Z,8556
2018-05-21T08:25:26.442Z,8420
2018-05-21T08:26:07.001Z,8304
2018-05-21T08:26:47.649Z,8208
2018-05-21T08:27:28.176Z,8068
2018-05-21T08:28:08.736Z,7960
2018-05-21T08:28:49.331Z,7872
2018-05-21T08:29:29.941Z,7768
2018-05-21T08:30:10.510Z,7668
2018-05-21T08:30:51.108Z,7584
2018-05-21T08:31:31.672Z,7492
2018-05-21T08:32:12.235Z,7408
2018-05-21T08:32:52.946Z,7320
2018-05-21T08:33:33.557Z,7256
2018-05-21T08:34:14.151Z,7164
2018-05-21T08:34:54.716Z,7088
2018-05-21T08:35:35.299Z,7012
2018-05-21T08:36:15.880Z,6952
2018-05-21T08:36:56.513Z,6868
2018-05-21T08:37:37.088Z,6796
2018-05-21T08:38:17.661Z,6728
2018-05-21T08:38:58.212Z,6664
2018-05-21T08:39:38.808Z,6600
2018-05-21T08:40:19.363Z,6532
2018-05-21T08:40:59.997Z,6484
2018-05-21T08:41:40.521Z,6432
2018-05-21T08:42:21.084Z,6368
2018-05-21T08:43:01.652Z,6312
2018-05-21T08:43:44.817Z,6260
2018-05-21T08:44:24.579Z,6224
2018-05-21T08:45:05.142Z,6180
2018-05-21T08:45:45.809Z,6136
2018-05-21T08:46:26.373Z,6088
2018-05-21T08:47:06.945Z,6044
2018-05-21T08:47:47.496Z,5996
2018-05-21T08:48:28.082Z,5940
2018-05-21T08:49:08.635Z,5888
2018-05-21T08:49:49.324Z,5836
2018-05-21T08:50:30.020Z,5792
2018-05-21T08:51:10.592Z,5740
2018-05-21T08:51:51.179Z,5692
2018-05-21T08:52:31.940Z,5628
2018-05-21T08:53:12.542Z,5596
2018-05-21T08:53:53.129Z,5564
2018-05-21T08:54:33.793Z,5572
2018-05-21T08:55:14.481Z,5576
2018-05-21T08:55:55.025Z,5580
2018-05-21T08:56:35.676Z,5616
2018-05-21T08:57:16.292Z,5556
2018-05-21T08:57:56.905Z,5532
2018-05-21T08:58:37.592Z,5444
2018-05-21T08:59:18.047Z,5416
2018-05-21T08:59:58.609Z,5324
2018-05-21T09:00:39.160Z,5264
2018-05-21T09:01:19.938Z,5300
2018-05-21T09:02:00.498Z,5244
2018-05-21T09:02:41.077Z,5232
2018-05-21T09:03:21.649Z,5300
2018-05-21T09:04:02.280Z,5280
2018-05-21T09:04:42.853Z,5284
2018-05-21T09:05:23.362Z,5248
2018-05-21T09:06:03.925Z,5200
2018-05-21T09:06:44.505Z,5184
2018-05-21T09:07:26.361Z,5108
2018-05-21T09:08:05.907Z,5188
2018-05-21T09:08:46.501Z,5072
2018-05-21T09:09:27.065Z,5088
2018-05-21T09:10:07.729Z,5132
2018-05-21T09:10:48.183Z,5108
2018-05-21T09:11:28.763Z,4920
2018-05-21T09:12:09.321Z,4752
2018-05-21T09:12:49.900Z,4644
2018-05-21T09:13:30.470Z,3412